Flight Track Log - Related Links

Times and Time Zones

All times are in EDT time to prevent confusion due to time zone crossing. See the UAL780 flight status page for this flight to view local times or setup timezone preferences in your user account.

Time Position Orientation Groundspeed Altitude Reporting Facility
EDT Latitude Longitude Course Direction KTS MPH feet Rate Location/Type
Sun 11:15:56 AM 40.5564 -80.1869 253° West 260 299 6,400  Level Cleveland Center
Sun 11:16:56 AM 40.5483 -80.2933 264° West 287 330 8,900 2,250 Climbing Cleveland Center
Sun 11:17:56 AM 40.5464 -80.3919 269° West 305 351 10,900 2,350 Climbing Cleveland Center
Sun 11:18:56 AM 40.5403 -80.5339 267° West 337 388 13,600 2,500 Climbing Cleveland Center
Sun 11:19:56 AM 40.5361 -80.6622 268° West 351 404 15,900 2,100 Climbing Cleveland Center
Sun 11:20:00 AM 40.4151 -82.2711 253° West  Level FlightAware Approximate
Sun 11:20:56 AM 40.5297 -80.7961 266° West 363 418 17,800  Level Cleveland Center
Sun 11:21:00 AM 40.3870 -82.3946 253° West  Level FlightAware Approximate
Sun 11:21:56 AM 40.5231 -80.9356 266° West 374 430 19,700  Level Cleveland Center
Sun 11:22:56 AM 40.5164 -81.0803 267° West 386 444 21,400 1,516 Climbing Cleveland Center
Sun 11:25:06 AM 40.4981 -81.3836 266° West 408 470 24,500 1,438 Climbing Indianapolis Center
Sun 11:26:08 AM 40.4900 -81.5394 266° West 421 484 26,000 1,306 Climbing Indianapolis Center
Sun 11:27:10 AM 40.4817 -81.6961 266° West 427 491 27,200 1,210 Climbing Indianapolis Center
Sun 11:28:12 AM 40.4719 -81.8828 266° West 434 499 28,500 1,210 Climbing Indianapolis Center
Sun 11:29:14 AM 40.4631 -82.0469 266° West 445 512 29,700 1,171 Climbing Indianapolis Center
Sun 11:30:15 AM 40.4378 -82.2044 258° West 440 506 30,900 1,171 Climbing Indianapolis Center
Sun 11:31:17 AM 40.4003 -82.3603 253° West 442 509 32,100 1,065 Climbing Indianapolis Center
Sun 11:32:19 AM 40.3625 -82.5144 252° West 441 507 33,100 968 Climbing Indianapolis Center
Sun 11:33:21 AM 40.3244 -82.6675 252° West 438 504 34,100 968 Climbing Indianapolis Center
Sun 11:34:23 AM 40.2817 -82.8347 252° West 437 503 35,100 878 Climbing Indianapolis Center
Sun 11:35:24 AM 40.2431 -82.9875 252° West 439 505 35,900 439 Climbing Indianapolis Center
Sun 11:36:26 AM 40.2058 -83.1378 252° West 435 501 36,000 48 Climbing Indianapolis Center
Sun 11:37:28 AM 40.1664 -83.2875 251° West 433 498 36,000  Level Indianapolis Center
Sun 11:38:30 AM 40.1281 -83.4386 252° West 438 504 36,000  Level Indianapolis Center
Sun 11:39:32 AM 40.0886 -83.5892 251° West 439 505 36,000  Level Indianapolis Center
Sun 11:40:33 AM 40.0436 -83.7653 252° West 440 506 36,000  Level Indianapolis Center
Sun 11:41:35 AM 40.0036 -83.9142 251° West 436 502 36,000  Level Indianapolis Center
Sun 11:42:37 AM 39.9633 -84.0644 251° West 438 504 36,000  Level Indianapolis Center
Sun 11:43:39 AM 39.9233 -84.2158 251° West 438 504 36,000  Level Indianapolis Center
Sun 11:44:41 AM 39.8825 -84.3678 251° West 440 506 36,000  Level Indianapolis Center
Sun 11:45:43 AM 39.8419 -84.5183 251° West 438 504 36,000  Level Indianapolis Center
Sun 11:46:45 AM 39.8000 -84.6686 250° West 439 505 36,000  Level Indianapolis Center
Sun 11:47:46 AM 39.7433 -84.8378 247° West 434 499 36,000  Level Indianapolis Center
Sun 11:48:48 AM 39.6753 -84.9400 229° Southwest 429 494 36,000  Level Indianapolis Center
Sun 11:49:50 AM 39.5858 -85.0478 223° Southwest 435 501 36,000  Level Indianapolis Center
Sun 11:50:52 AM 39.4794 -85.1783 223° Southwest 437 503 36,000  Level Indianapolis Center
Sun 11:51:53 AM 39.3900 -85.2872 223° Southwest 441 507 36,000  Level Indianapolis Center
Sun 11:52:55 AM 39.3019 -85.3972 224° Southwest 439 505 36,000  Level Indianapolis Center
Sun 11:53:57 AM 39.2114 -85.5069 223° Southwest 444 511 36,000 48 Level Indianapolis Center
Sun 11:54:59 AM 39.1208 -85.6153 223° Southwest 444 511 36,100  Climbing Indianapolis Center
Sun 11:56:00 AM 39.0331 -85.7231 224° Southwest 437 503 36,000 -49 Descending Indianapolis Center
Sun 11:57:02 AM 38.9431 -85.8311 223° Southwest 439 505 36,000  Level Indianapolis Center
Sun 11:58:04 AM 38.8400 -85.9561 223° Southwest 440 506 36,000  Level Indianapolis Center
Sun 11:59:06 AM 38.7486 -86.0636 223° Southwest 444 511 36,000  Level Indianapolis Center
Sun 12:00:08 PM 38.6569 -86.1736 223° Southwest 448 516 36,000  Level Indianapolis Center
Sun 12:01:09 PM 38.5650 -86.2814 223° Southwest 448 516 36,000  Level Indianapolis Center
Sun 12:02:12 PM 38.4725 -86.3908 223° Southwest 450 518 36,000  Level Indianapolis Center
Sun 12:03:13 PM 38.3789 -86.5003 223° Southwest 452 520 36,000  Level Indianapolis Center
Sun 12:04:15 PM 38.2853 -86.6108 223° Southwest 455 524 36,000  Level Indianapolis Center
Sun 12:05:17 PM 38.1917 -86.7189 222° Southwest 451 519 36,000  Level Indianapolis Center
Sun 12:06:19 PM 38.0786 -86.8519 223° Southwest 452 520 36,000  Level Indianapolis Center
Sun 12:07:21 PM 37.9850 -86.9608 223° Southwest 451 519 36,000  Level Indianapolis Center
Sun 12:08:23 PM 37.8919 -87.0686 222° Southwest 449 517 36,000  Level Indianapolis Center
Sun 12:09:24 PM 37.7986 -87.1764 222° Southwest 449 517 36,000 49 Level Indianapolis Center
Sun 12:10:26 PM 37.7008 -87.2883 222° Southwest 450 518 36,100  Climbing Indianapolis Center
Sun 12:11:28 PM 37.6072 -87.3964 222° Southwest 453 521 36,000  Descending Indianapolis Center
Sun 12:11:45 PM 37.5806 -87.4289 224° Southwest 452 520 36,100  Climbing Memphis Center
Sun 12:12:45 PM 37.4872 -87.5342 222° Southwest 452 520 36,000 -50 Descending Memphis Center
Sun 12:13:45 PM 37.4058 -87.6258 222° Southwest 452 520 36,000  Level Memphis Center
Sun 12:14:45 PM 37.3144 -87.7308 222° Southwest 452 520 36,000  Level Memphis Center
Sun 12:15:45 PM 37.2228 -87.8353 222° Southwest 447 514 36,000  Level Memphis Center
Sun 12:16:45 PM 37.1272 -87.9425 222° Southwest 454 522 36,000  Level Memphis Center
Sun 12:17:45 PM 37.0353 -88.0442 221° Southwest 454 522 36,000 50 Level Memphis Center
Sun 12:18:45 PM 36.9331 -88.1586 222° Southwest 449 517 36,100  Climbing Memphis Center
Sun 12:19:45 PM 36.8414 -88.2647 223° Southwest 454 522 36,000 -50 Descending Memphis Center
Sun 12:20:45 PM 36.7472 -88.3683 221° Southwest 454 522 36,000  Level Memphis Center
Sun 12:21:45 PM 36.6550 -88.4689 221° Southwest 454 522 36,000  Level Memphis Center
Sun 12:22:45 PM 36.5606 -88.5692 220° Southwest 454 522 36,000  Level Memphis Center
Sun 12:23:45 PM 36.4661 -88.6694 221° Southwest 454 522 36,000  Level Memphis Center
Sun 12:24:45 PM 36.3736 -88.7719 222° Southwest 454 522 36,000  Level Memphis Center
Sun 12:25:45 PM 36.2789 -88.8717 220° Southwest 454 522 36,000  Level Memphis Center
Sun 12:26:45 PM 36.1864 -88.9736 222° Southwest 454 522 36,000  Level Memphis Center
Sun 12:27:45 PM 36.0894 -89.0753 220° Southwest 454 522 36,000  Level Memphis Center
Sun 12:28:45 PM 35.9986 -89.1742 221° Southwest 454 522 36,000  Level Memphis Center
Sun 12:29:45 PM 35.9056 -89.2731 221° Southwest 454 522 36,000  Level Memphis Center
Sun 12:30:45 PM 35.8128 -89.3739 221° Southwest 454 522 36,000 350 Level Memphis Center
Sun 12:31:45 PM 35.7217 -89.4747 222° Southwest 454 522 36,700 650 Climbing Memphis Center
Sun 12:32:45 PM 35.6347 -89.5703 222° Southwest 441 507 37,300 500 Climbing Memphis Center
Sun 12:33:45 PM 35.5519 -89.6578 221° Southwest 436 502 37,700 350 Climbing Memphis Center
Sun 12:34:45 PM 35.4586 -89.7581 221° Southwest 441 507 38,000 150 Climbing Memphis Center
Sun 12:35:45 PM 35.3608 -89.8606 221° Southwest 452 520 38,000  Level Memphis Center
Sun 12:36:45 PM 35.2675 -89.9628 222° Southwest 457 526 38,000  Level Memphis Center
Sun 12:37:45 PM 35.1675 -90.0600 218° Southwest 457 526 38,000  Level Memphis Center
Sun 12:38:45 PM 35.0636 -90.1517 216° Southwest 457 526 38,000  Level Memphis Center
Sun 12:39:45 PM 34.9592 -90.2406 215° Southwest 462 532 38,000  Level Memphis Center
Sun 12:40:45 PM 34.8550 -90.3292 215° Southwest 462 532 38,000  Level Memphis Center
Sun 12:41:45 PM 34.7528 -90.4178 215° Southwest 462 532 38,000 50 Level Memphis Center
Sun 12:42:45 PM 34.6483 -90.5036 214° Southwest 462 532 38,100  Climbing Memphis Center
Sun 12:43:45 PM 34.5461 -90.5892 215° Southwest 462 532 38,000 -50 Descending Memphis Center
Sun 12:44:45 PM 34.4414 -90.6744 214° Southwest 462 532 38,000  Level Memphis Center
Sun 12:45:45 PM 34.3306 -90.7672 215° Southwest 447 514 38,000  Level Memphis Center
Sun 12:46:45 PM 34.2303 -90.8519 215° Southwest 447 514 38,000  Level Memphis Center
Sun 12:47:45 PM 34.1297 -90.9369 215° Southwest 442 509 38,000  Level Memphis Center
Sun 12:48:45 PM 34.0292 -91.0189 214° Southwest 447 514 38,000  Level Memphis Center
Sun 12:49:45 PM 33.9283 -91.1033 215° Southwest 440 506 38,000  Level Memphis Center
Sun 12:50:45 PM 33.8256 -91.1825 213° Southwest 446 513 38,000  Level Memphis Center
Sun 12:51:45 PM 33.7292 -91.2664 216° Southwest 441 507 38,000  Level Memphis Center
Sun 12:52:45 PM 33.6367 -91.3403 214° Southwest 441 507 38,000  Level Memphis Center
Sun 12:53:45 PM 33.5358 -91.4239 215° Southwest 447 514 38,000  Level Memphis Center
Sun 12:55:57 PM 33.3172 -91.6094 215° Southwest 426 490 38,000  Level Fort Worth Center
Sun 12:56:57 PM 33.2125 -91.6908 213° Southwest 438 504 38,000 50 Level Fort Worth Center
Sun 12:57:57 PM 33.1200 -91.7686 215° Southwest 455 524 38,100  Climbing Fort Worth Center
Sun 12:58:57 PM 33.0131 -91.8497 212° Southwest 442 509 38,000 -50 Descending Fort Worth Center
Sun 12:59:57 PM 32.9142 -91.9275 213° Southwest 437 503 38,000  Level Fort Worth Center
Sun 01:00:57 PM 32.8133 -92.0103 215° Southwest 437 503 38,000  Level Fort Worth Center
Sun 01:01:57 PM 32.7186 -92.0878 215° Southwest 427 491 38,000  Level Fort Worth Center
Sun 01:04:08 PM 32.5036 -92.2644 215° Southwest 427 491 38,000  Level Houston Center
Sun 01:05:10 PM 32.4047 -92.3403 213° Southwest 425 489 38,000  Level Houston Center
Sun 01:06:12 PM 32.3072 -92.4175 214° Southwest 423 487 38,000  Level Houston Center
Sun 01:07:14 PM 32.2089 -92.4950 214° Southwest 424 488 38,000  Level Houston Center
Sun 01:08:16 PM 32.1097 -92.5736 214° Southwest 427 491 38,000 -339 Level Houston Center
Sun 01:09:18 PM 31.9900 -92.6658 213° Southwest 429 494 37,300 -960 Descending Houston Center
Sun 01:10:21 PM 31.8972 -92.7539 219° Southwest 428 493 36,000 -624 Descending Houston Center
Sun 01:11:23 PM 31.8036 -92.8419 219° Southwest 431 496 36,000  Level Houston Center
Sun 01:12:25 PM 31.7106 -92.9339 220° Southwest 435 501 36,000  Level Houston Center
Sun 01:13:27 PM 31.6178 -93.0214 219° Southwest 431 496 36,000  Level Houston Center
Sun 01:14:29 PM 31.5231 -93.1128 219° Southwest 441 507 36,000  Level Houston Center
Sun 01:15:31 PM 31.4092 -93.2211 219° Southwest 441 507 36,000 -97 Level Houston Center
Sun 01:16:33 PM 31.3092 -93.3158 219° Southwest 439 505 35,800 -581 Descending Houston Center
Sun 01:17:35 PM 31.2203 -93.4000 219° Southwest 437 503 34,800 -1,500 Descending Houston Center
Sun 01:18:37 PM 31.1267 -93.4894 219° Southwest 438 504 32,700 -1,984 Descending Houston Center
Sun 01:19:39 PM 31.0331 -93.5781 219° Southwest 436 502 30,700 -2,129 Descending Houston Center
Sun 01:20:41 PM 30.9247 -93.6819 219° Southwest 425 489 28,300 -2,081 Descending Houston Center
Sun 01:21:43 PM 30.8367 -93.7661 219° Southwest 415 478 26,400 -1,839 Descending Houston Center
Sun 01:22:45 PM 30.7500 -93.8469 219° Southwest 405 466 24,500 -1,887 Descending Houston Center
Sun 01:23:47 PM 30.6653 -93.9267 219° Southwest 397 457 22,500 -1,839 Descending Houston Center
Sun 01:24:49 PM 30.5825 -94.0042 219° Southwest 385 443 20,700 -1,950 Descending Houston Center
Sun 01:25:07 PM 30.5503 -94.0364 221° Southwest 378 435 19,900 -2,250 Descending Houston Center
Sun 01:25:37 PM 30.5039 -94.0767 217° Southwest 372 428 18,900 -1,918 Descending Houston Center
Sun 01:26:44 PM 30.4156 -94.1614 220° Southwest 361 415 16,800 -1,828 Descending Houston Center
Sun 01:27:45 PM 30.3425 -94.2292 219° Southwest 352 405 15,000 -1,610 Descending Houston Center
Sun 01:28:47 PM 30.2656 -94.3000 218° Southwest 337 388 13,500 -1,512 Descending Houston Center
Sun 01:29:48 PM 30.1972 -94.3742 223° Southwest 325 374 11,900 -1,082 Descending Houston Center
Sun 01:30:49 PM 30.1775 -94.4736 257° West 323 372 11,300 -541 Descending Houston Center
Sun 01:31:50 PM 30.1608 -94.5822 260° West 322 371 10,800 -541 Descending Houston Center
Sun 01:32:51 PM 30.1433 -94.6836 259° West 317 365 10,200 -553 Descending Houston Center
Sun 01:33:06 PM 30.1417 -94.6967 262° West 317 365 10,100 -643 Descending Houston Center
Sun 01:33:47 PM 30.1267 -94.7728 257° West 310 357 9,600 -581 Descending Houston Center
Sun 01:34:08 PM 30.1247 -94.7936 264° West 312 359 9,500 -545 Descending Houston Center
Sun 01:34:53 PM 30.1108 -94.8714 258° West 286 329 9,000 -484 Descending Houston Center
Sun 01:35:10 PM 30.1100 -94.8839 266° West 295 339 9,000 -429 Level Houston Center
Sun 01:35:49 PM 30.1064 -94.9564 267° West 293 337 8,600 -484 Descending Houston Center
Sun 01:36:12 PM 30.1058 -94.9761 268° West 289 333 8,500 -627 Descending Houston Center
Sun 01:36:56 PM 30.1058 -95.0628 270° West 291 335 7,900 -968 Descending Houston Center
Sun 01:37:14 PM 30.1061 -95.0869 271° West 290 334 7,500 -1,574 Descending Houston Center
Sun 01:37:57 PM 30.1061 -95.1569 270° West 288 331 6,300 -1,452 Descending Houston Center
Sun 01:38:16 PM 30.1067 -95.1786 272° West 289 333 6,000 -295 Descending Houston Center
Sun 01:38:58 PM 30.1064 -95.2489 270° West 285 328 6,000  Level Houston Center
Sun 01:39:18 PM 30.1075 -95.2700 273° West 288 331 6,000  Level Houston Center
Sun 01:40:20 PM 30.1072 -95.3564 270° West 278 320 6,000 -353 Level Houston Center
Sun 01:41:00 PM 30.1067 -95.4131 269° West 207 238 5,400 -677 Descending Houston Center
Sun 01:41:22 PM 30.1083 -95.4236 280° West 226 260 5,300 -1,452 Descending Houston Center
Sun 01:42:02 PM 30.0944 -95.4650 249° West 157 181 3,900 -2,032 Descending Houston Center
Sun 01:42:24 PM 30.0797 -95.4681 190° South 164 189 3,200 -1,909 Descending Houston Center

Login

Don't have an account? Register now (free) for customized features, flight alerts, and more!